Shannon, GA (30172)

4:48 PM EST on December 17, 2014 (GMT -0500)
Armuchee | Change Station
CLOSE
Current Station
Personal Weather Station
Location: Rome, GA
Elevation: 623 ft
Nearby Weather Stations

Elev 623 ft 34.36 °N, 85.13 °W | Updated 9 minutes ago

Partly Cloudy
Partly Cloudy
46.4 °F
Feels Like 46 °F
N
3.0
Wind Variable Wind from NNW
Gusts 5.0 mph

Today
High -- | Low -- °F
--% Chance of Precip.
Yesterday
High -- | Low -- °F
Precip. -- in
7:40 AM 5:32 PM
Waning Crescent, 19% visible
Pressure 30.18 in
Visibility 10.0 miles
Clouds Clear
Windchill 46 °F
Dew Point 39 °F
Humidity 75%
Rainfall 0.00 in
Snow Depth Not available.
UV 0.0 out of 12
Pollen .70 out of 12
Air Quality Not available.
Flu Activity Not available.
METAR KRMG 172053Z AUTO 34005KT 10SM CLR 08/02 A3018 RMK AO2 SLP218 T00830022 55013

More Conditions Fewer Conditions

Pressure 30.18 in
Visibility 10.0 miles
Clouds Clear
Windchill 46 °F
Dew Point 39 °F
Humidity 75%
Rainfall 0.00 in
Snow Depth Not available.
UV 0.0 out of 12
Pollen .70 out of 12
Air Quality Not available.
Flu Activity Not available.
METAR KRMG 172053Z AUTO 34005KT 10SM CLR 08/02 A3018 RMK AO2 SLP218 T00830022 55013

More Conditions Fewer Conditions

10-Day Weather Forecast

Almanac

Astronomy

Dec. 17, 2014 Rise Set
Actual Time
Civil Twilight
Nautical Twilight
Astronomical Twilight
Moon
Length of Visible Light
Length of Day
Tomorrow will be .
, % of the Moon is Illuminated

Today's Extremes

State Highs State Lows

Community

WunderPhotos

Upload Photos

1,778,807 photos uploaded!

WunderBlogs® & News

Nearby

Air Quality

  Air Quality AQ Index Pollutant
Not available.

Snow Depth

Station Depth Elevation

Earthquake Activity

City Distance Mag. Time & Date
Minimum magnitude displayed is 2.5.

Coastal Water Temperatures

Place Temperature

Nearby Weather Stations